Time,TemperatureF,DewpointF,PressureIn,WindDirection,WindDirectionDegrees,WindSpeedMPH,WindSpeedGustMPH,Humidity,HourlyPrecipIn,Conditions,Clouds,dailyrainin,SoftwareType,DateUTC
2013-03-07 00:00:00,30.2,27.5,30.26,NNW,338,4.0,4.0,89,0.00,,,0.04,WUHU216HW,2013-03-07 05:00:00,
2013-03-07 00:05:00,30.2,27.5,30.26,NNW,338,3.8,4.0,89,0.00,,,0.00,WUHU216HW,2013-03-07 05:05:00,
2013-03-07 00:30:00,30.2,27.5,30.26,NNW,338,1.1,1.1,89,0.00,,,0.00,WUHU216HW,2013-03-07 05:30:00,
2013-03-07 00:35:00,30.2,27.5,30.26,North,0,0.9,1.1,89,0.00,,,0.00,WUHU216HW,2013-03-07 05:35:00,
2013-03-07 00:40:00,30.2,27.5,30.26,North,0,0.9,1.1,89,0.00,,,0.00,WUHU216HW,2013-03-07 05:40:00,
2013-03-07 01:00:00,30.2,27.5,30.26,NW,315,4.0,4.0,89,0.00,,,0.00,WUHU216HW,2013-03-07 06:00:00,
2013-03-07 01:05:00,30.2,27.5,30.26,WNW,293,2.2,4.0,89,0.00,,,0.00,WUHU216HW,2013-03-07 06:05:00,
2013-03-07 01:10:00,30.2,27.5,30.26,WNW,293,2.2,2.2,89,0.00,,,0.00,WUHU216HW,2013-03-07 06:10:00,
2013-03-07 01:30:00,30.2,27.5,30.26,NW,315,1.1,1.1,89,0.00,,,0.00,WUHU216HW,2013-03-07 06:30:00,
2013-03-07 01:35:00,30.2,27.5,30.26,NNW,338,3.6,3.6,89,0.00,,,0.00,WUHU216HW,2013-03-07 06:35:00,
2013-03-07 01:40:00,30.2,27.5,30.26,NNW,338,3.6,3.6,89,0.00,,,0.00,WUHU216HW,2013-03-07 06:40:00,
2013-03-07 02:00:00,30.2,27.5,30.27,NNW,338,1.1,1.1,89,0.00,,,0.00,WUHU216HW,2013-03-07 07:00:00,
2013-03-07 02:05:00,30.2,27.5,30.27,NNW,338,1.1,1.1,89,0.00,,,0.00,WUHU216HW,2013-03-07 07:05:00,
2013-03-07 02:30:00,30.1,27.3,30.27,North,0,4.7,4.7,89,0.00,,,0.00,WUHU216HW,2013-03-07 07:30:00,
2013-03-07 02:35:00,30.1,27.3,30.27,NNW,338,4.3,4.7,89,0.00,,,0.00,WUHU216HW,2013-03-07 07:35:00,
2013-03-07 02:40:00,30.1,27.3,30.27,NNW,338,4.3,4.7,89,0.00,,,0.00,WUHU216HW,2013-03-07 07:40:00,
2013-03-07 03:00:00,30.1,27.3,30.27,NNW,338,1.1,1.1,89,0.00,,,0.00,WUHU216HW,2013-03-07 08:00:00,
2013-03-07 03:05:00,30.1,27.3,30.27,NNW,338,0.2,1.1,89,0.00,,,0.00,WUHU216HW,2013-03-07 08:05:00,
2013-03-07 03:30:00,29.9,27.1,30.28,NNW,338,2.2,2.2,89,0.00,,,0.00,WUHU216HW,2013-03-07 08:30:00,
2013-03-07 03:35:00,29.9,27.1,30.28,NNW,338,3.6,3.6,89,0.00,,,0.00,WUHU216HW,2013-03-07 08:35:00,
2013-03-07 03:40:00,29.9,27.1,30.28,NNW,338,3.6,3.6,89,0.00,,,0.00,WUHU216HW,2013-03-07 08:40:00,
2013-03-07 03:59:00,29.9,27.1,30.28,NNW,338,2.5,2.5,89,0.00,,,0.00,WUHU216HW,2013-03-07 08:59:00,
2013-03-07 04:00:00,29.9,27.1,30.28,NNW,338,2.5,2.5,89,0.00,,,0.00,WUHU216HW,2013-03-07 09:00:00,
2013-03-07 04:05:00,29.9,27.1,30.28,NNW,338,2.5,2.5,89,0.00,,,0.00,WUHU216HW,2013-03-07 09:05:00,
2013-03-07 04:30:00,29.9,27.1,30.29,WNW,293,4.0,4.0,89,0.00,,,0.00,WUHU216HW,2013-03-07 09:30:00,
2013-03-07 04:35:00,29.9,27.1,30.29,WNW,293,4.0,4.0,89,0.00,,,0.00,WUHU216HW,2013-03-07 09:35:00,
2013-03-07 05:00:00,29.7,26.9,30.30,NW,315,3.4,3.4,89,0.00,,,0.00,WUHU216HW,2013-03-07 10:00:00,
2013-03-07 05:05:00,29.7,26.9,30.30,WNW,293,3.4,3.4,89,0.00,,,0.00,WUHU216HW,2013-03-07 10:05:00,
2013-03-07 05:10:00,29.7,26.9,30.30,WNW,293,3.4,3.4,89,0.00,,,0.00,WUHU216HW,2013-03-07 10:10:00,
2013-03-07 05:30:00,29.7,26.9,30.31,NW,315,1.8,1.8,89,0.00,,,0.00,WUHU216HW,2013-03-07 10:30:00,
2013-03-07 05:31:00,29.7,26.9,30.31,NW,315,1.8,1.8,89,0.00,,,0.00,WUHU216HW,2013-03-07 10:31:00,
2013-03-07 05:35:00,29.7,26.9,30.31,NW,315,1.8,2.7,89,0.00,,,0.00,WUHU216HW,2013-03-07 10:35:00,
2013-03-07 05:40:00,29.7,26.9,30.31,NW,315,1.8,2.7,89,0.00,,,0.00,WUHU216HW,2013-03-07 10:40:00,
2013-03-07 06:00:00,29.7,26.9,30.31,NNW,338,1.8,1.8,89,0.00,,,0.00,WUHU216HW,2013-03-07 11:00:00,
2013-03-07 06:05:00,29.7,26.9,30.31,NNW,338,2.0,2.0,89,0.00,,,0.00,WUHU216HW,2013-03-07 11:05:00,
2013-03-07 06:10:00,29.7,26.9,30.31,NNW,338,2.0,2.0,89,0.00,,,0.00,WUHU216HW,2013-03-07 11:10:00,
2013-03-07 06:30:00,29.7,26.9,30.32,NW,315,1.1,1.1,89,0.00,,,0.00,WUHU216HW,2013-03-07 11:30:00,
2013-03-07 06:35:00,29.7,26.9,30.31,NW,315,2.9,2.9,89,0.00,,,0.00,WUHU216HW,2013-03-07 11:35:00,
2013-03-07 06:40:00,29.7,26.9,30.31,NW,315,2.9,2.9,89,0.00,,,0.00,WUHU216HW,2013-03-07 11:40:00,
2013-03-07 07:00:00,29.7,26.9,30.32,NNW,338,0.0,0.0,89,0.00,,,0.00,WUHU216HW,2013-03-07 12:00:00,
2013-03-07 07:05:00,29.7,26.9,30.32,NNW,338,2.0,2.0,89,0.00,,,0.00,WUHU216HW,2013-03-07 12:05:00,
2013-03-07 07:10:00,29.7,26.9,30.32,NNW,338,2.0,2.0,89,0.00,,,0.00,WUHU216HW,2013-03-07 12:10:00,
2013-03-07 07:30:00,29.9,27.1,30.33,NNW,338,0.2,0.2,89,0.00,,,0.00,WUHU216HW,2013-03-07 12:30:00,
2013-03-07 07:35:00,29.9,27.1,30.33,NNW,338,0.2,0.2,89,0.00,,,0.00,WUHU216HW,2013-03-07 12:35:00,
2013-03-07 07:40:00,29.9,27.1,30.33,NNW,338,0.2,0.2,89,0.00,,,0.00,WUHU216HW,2013-03-07 12:40:00,
2013-03-07 08:00:00,30.1,27.3,30.34,WNW,293,1.1,1.1,89,0.00,,,0.00,WUHU216HW,2013-03-07 13:00:00,
2013-03-07 08:05:00,30.1,27.3,30.34,WNW,293,1.1,1.1,89,0.00,,,0.00,WUHU216HW,2013-03-07 13:05:00,
2013-03-07 08:10:00,30.1,27.3,30.34,WNW,293,1.1,1.1,89,0.00,,,0.00,WUHU216HW,2013-03-07 13:10:00,
2013-03-07 08:30:00,30.4,27.6,30.35,NNW,338,0.2,0.2,89,0.00,,,0.00,WUHU216HW,2013-03-07 13:30:00,
2013-03-07 08:35:00,30.4,27.6,30.35,NNW,338,0.2,0.2,89,0.00,,,0.00,WUHU216HW,2013-03-07 13:35:00,
2013-03-07 08:40:00,30.4,27.6,30.35,NNW,338,0.2,0.2,89,0.00,,,0.00,WUHU216HW,2013-03-07 13:40:00,
2013-03-07 09:00:00,31.0,27.9,30.36,North,0,0.7,0.7,88,0.00,,,0.00,WUHU216HW,2013-03-07 14:00:00,
2013-03-07 09:05:00,30.8,28.0,30.36,North,0,1.1,1.1,89,0.00,,,0.00,WUHU216HW,2013-03-07 14:05:00,
2013-03-07 09:10:00,30.8,28.0,30.36,North,0,1.1,1.1,89,0.00,,,0.00,WUHU216HW,2013-03-07 14:10:00,
2013-03-07 09:30:00,32.0,28.6,30.36,WNW,293,3.4,3.4,87,0.00,,,0.00,WUHU216HW,2013-03-07 14:30:00,
2013-03-07 09:35:00,32.0,28.6,30.36,NW,315,2.5,3.4,87,0.00,,,0.00,WUHU216HW,2013-03-07 14:35:00,
2013-03-07 09:40:00,32.0,28.6,30.36,NW,315,2.5,2.5,87,0.00,,,0.00,WUHU216HW,2013-03-07 14:40:00,
2013-03-07 10:00:00,32.6,28.5,30.36,NNW,338,1.1,1.1,85,0.00,,,0.00,WUHU216HW,2013-03-07 15:00:00,
2013-03-07 10:05:00,32.8,28.7,30.36,WNW,293,0.9,1.1,85,0.00,,,0.00,WUHU216HW,2013-03-07 15:05:00,
2013-03-07 10:10:00,32.8,28.7,30.36,WNW,293,0.9,1.1,85,0.00,,,0.00,WUHU216HW,2013-03-07 15:10:00,
2013-03-07 10:30:00,33.3,28.6,30.37,NNW,338,0.0,0.0,83,0.00,,,0.00,WUHU216HW,2013-03-07 15:30:00,
2013-03-07 10:35:00,33.3,28.6,30.37,North,0,0.2,0.2,83,0.00,,,0.00,WUHU216HW,2013-03-07 15:35:00,
2013-03-07 10:40:00,33.3,28.6,30.37,North,0,0.2,0.2,83,0.00,,,0.00,WUHU216HW,2013-03-07 15:40:00,
2013-03-07 11:00:00,34.2,29.8,30.37,NNW,338,0.0,0.0,84,0.00,,,0.00,WUHU216HW,2013-03-07 16:00:00,
2013-03-07 11:05:00,34.2,29.8,30.37,NNW,338,0.0,0.0,84,0.00,,,0.00,WUHU216HW,2013-03-07 16:05:00,
2013-03-07 11:30:00,34.9,29.6,30.37,North,0,0.7,0.7,81,0.01,,,0.00,WUHU216HW,2013-03-07 16:30:00,
2013-03-07 11:35:00,34.9,29.6,30.37,NNW,338,0.0,0.7,81,0.01,,,0.01,WUHU216HW,2013-03-07 16:35:00,
2013-03-07 11:40:00,34.9,29.6,30.37,NNW,338,0.0,0.7,81,0.01,,,0.01,WUHU216HW,2013-03-07 16:40:00,
2013-03-07 12:00:00,36.4,30.8,30.37,North,0,1.3,1.3,80,0.01,,,0.01,WUHU216HW,2013-03-07 17:00:00,
2013-03-07 12:05:00,36.4,30.8,30.37,North,0,0.9,1.3,80,0.01,,,0.01,WUHU216HW,2013-03-07 17:05:00,
2013-03-07 12:10:00,36.4,30.8,30.37,North,0,0.9,1.3,80,0.01,,,0.01,WUHU216HW,2013-03-07 17:10:00,
2013-03-07 12:30:00,37.8,30.9,30.37,North,0,0.4,0.4,76,0.03,,,0.01,WUHU216HW,2013-03-07 17:30:00,
2013-03-07 12:35:00,37.8,30.9,30.37,North,0,0.2,0.4,76,0.03,,,0.04,WUHU216HW,2013-03-07 17:35:00,
2013-03-07 12:40:00,37.8,30.9,30.37,North,0,0.2,0.4,76,0.03,,,0.04,WUHU216HW,2013-03-07 17:40:00,
2013-03-07 13:00:00,39.4,31.4,30.37,WSW,248,1.1,1.1,73,0.06,,,0.04,WUHU216HW,2013-03-07 18:00:00,
2013-03-07 13:05:00,39.4,31.4,30.37,West,270,0.0,1.1,73,0.06,,,0.08,WUHU216HW,2013-03-07 18:05:00,
2013-03-07 13:10:00,39.4,31.4,30.37,West,270,0.0,0.4,73,0.06,,,0.08,WUHU216HW,2013-03-07 18:10:00,
2013-03-07 13:30:00,39.6,29.9,30.36,NNW,338,1.8,1.8,68,0.08,,,0.08,WUHU216HW,2013-03-07 18:30:00,
2013-03-07 13:35:00,39.6,29.4,30.36,NNW,338,2.5,2.5,67,0.08,,,0.12,WUHU216HW,2013-03-07 18:35:00,
2013-03-07 13:40:00,39.6,29.4,30.36,NNW,338,2.5,2.5,67,0.08,,,0.12,WUHU216HW,2013-03-07 18:40:00,
2013-03-07 14:00:00,38.9,29.9,30.34,North,0,0.7,0.7,70,0.08,,,0.12,WUHU216HW,2013-03-07 19:00:00,
2013-03-07 14:05:00,39.1,29.4,30.34,North,0,0.7,0.7,68,0.07,,,0.15,WUHU216HW,2013-03-07 19:05:00,
2013-03-07 14:10:00,39.1,29.4,30.34,North,0,0.7,0.7,68,0.07,,,0.15,WUHU216HW,2013-03-07 19:10:00,
2013-03-07 14:30:00,38.0,28.4,30.35,North,0,1.6,1.6,68,0.05,,,0.15,WUHU216HW,2013-03-07 19:30:00,
2013-03-07 14:35:00,38.0,28.7,30.35,NNW,338,2.5,2.5,69,0.05,,,0.17,WUHU216HW,2013-03-07 19:35:00,
2013-03-07 15:00:00,38.2,28.9,30.35,North,0,2.5,2.5,69,0.03,,,0.17,WUHU216HW,2013-03-07 20:00:00,
2013-03-07 15:05:00,38.2,28.5,30.35,North,0,2.5,2.5,68,0.02,,,0.18,WUHU216HW,2013-03-07 20:05:00,
2013-03-07 15:10:00,38.2,28.5,30.35,North,0,2.5,2.5,68,0.02,,,0.18,WUHU216HW,2013-03-07 20:10:00,
2013-03-07 15:30:00,37.3,28.4,30.36,WNW,293,3.8,3.8,70,0.01,,,0.18,WUHU216HW,2013-03-07 20:30:00,
2013-03-07 15:35:00,37.3,28.4,30.36,WNW,293,3.8,3.8,70,0.01,,,0.18,WUHU216HW,2013-03-07 20:35:00,
2013-03-07 15:40:00,37.3,28.4,30.36,WNW,293,3.8,3.8,70,0.01,,,0.18,WUHU216HW,2013-03-07 20:40:00,
2013-03-07 16:00:00,37.1,28.6,30.36,North,0,2.2,2.2,71,0.01,,,0.18,WUHU216HW,2013-03-07 21:00:00,
2013-03-07 16:05:00,37.3,28.8,30.36,WNW,293,1.8,2.5,71,0.01,,,0.19,WUHU216HW,2013-03-07 21:05:00,
2013-03-07 16:10:00,37.3,28.8,30.36,WNW,293,1.8,2.5,71,0.01,,,0.19,WUHU216HW,2013-03-07 21:10:00,
2013-03-07 16:30:00,37.1,27.9,30.36,North,0,0.9,0.9,69,0.01,,,0.19,WUHU216HW,2013-03-07 21:30:00,
2013-03-07 16:35:00,37.1,27.9,30.36,North,0,0.9,0.9,69,0.01,,,0.19,WUHU216HW,2013-03-07 21:35:00,
2013-03-07 16:40:00,37.1,27.9,30.36,North,0,0.9,0.9,69,0.01,,,0.19,WUHU216HW,2013-03-07 21:40:00,
2013-03-07 17:00:00,36.7,26.8,30.36,NNW,338,0.0,0.0,67,0.00,,,0.19,WUHU216HW,2013-03-07 22:00:00,
2013-03-07 17:05:00,36.5,27.0,30.36,NNW,338,0.0,0.0,68,0.00,,,0.19,WUHU216HW,2013-03-07 22:05:00,
2013-03-07 17:10:00,36.5,27.0,30.36,NNW,338,0.0,0.0,68,0.00,,,0.19,WUHU216HW,2013-03-07 22:10:00,
2013-03-07 17:30:00,36.4,26.5,30.37,North,0,1.8,1.8,67,0.00,,,0.19,WUHU216HW,2013-03-07 22:30:00,
2013-03-07 17:35:00,36.4,26.5,30.37,NNW,338,2.9,2.9,67,0.00,,,0.19,WUHU216HW,2013-03-07 22:35:00,
2013-03-07 17:40:00,36.4,26.5,30.37,NNW,338,2.9,2.9,67,0.00,,,0.19,WUHU216HW,2013-03-07 22:40:00,
2013-03-07 18:00:00,36.4,26.5,30.37,North,0,0.4,0.4,67,0.00,,,0.19,WUHU216HW,2013-03-07 23:00:00,
2013-03-07 18:05:00,36.5,26.7,30.37,North,0,1.6,1.6,67,0.00,,,0.19,WUHU216HW,2013-03-07 23:05:00,
2013-03-07 18:10:00,36.5,26.7,30.37,North,0,1.6,1.6,67,0.00,,,0.19,WUHU216HW,2013-03-07 23:10:00,
2013-03-07 18:30:00,35.8,25.9,30.38,North,0,0.4,0.4,67,0.00,,,0.19,WUHU216HW,2013-03-07 23:30:00,
2013-03-07 18:35:00,36.0,26.5,30.38,North,0,1.1,1.3,68,0.00,,,0.19,WUHU216HW,2013-03-07 23:35:00,
2013-03-07 18:40:00,36.0,26.5,30.38,North,0,1.1,1.3,68,0.00,,,0.19,WUHU216HW,2013-03-07 23:40:00,
2013-03-07 19:00:00,35.5,26.3,30.38,North,0,1.1,1.1,69,0.00,,,0.19,WUHU216HW,2013-03-08 00:00:00,
2013-03-07 19:05:00,35.5,26.3,30.38,NNW,338,0.4,1.3,69,0.00,,,0.19,WUHU216HW,2013-03-08 00:05:00,
2013-03-07 19:10:00,35.5,26.3,30.38,NNW,338,0.4,1.3,69,0.00,,,0.19,WUHU216HW,2013-03-08 00:10:00,
2013-03-07 19:30:00,35.3,25.7,30.39,North,0,0.4,0.4,68,0.00,,,0.19,WUHU216HW,2013-03-08 00:30:00,
2013-03-07 19:35:00,35.3,25.7,30.39,North,0,0.4,0.4,68,0.00,,,0.19,WUHU216HW,2013-03-08 00:35:00,
2013-03-07 19:40:00,35.3,25.7,30.39,North,0,0.4,0.4,68,0.00,,,0.19,WUHU216HW,2013-03-08 00:40:00,
2013-03-07 20:00:00,34.9,26.5,30.39,NNE,23,1.6,1.6,71,0.00,,,0.19,WUHU216HW,2013-03-08 01:00:00,
2013-03-07 20:05:00,34.9,26.5,30.39,NNE,23,1.8,1.8,71,0.00,,,0.19,WUHU216HW,2013-03-08 01:05:00,
2013-03-07 20:10:00,34.9,26.5,30.39,NNE,23,1.8,1.8,71,0.00,,,0.19,WUHU216HW,2013-03-08 01:10:00,
2013-03-07 20:30:00,34.7,26.3,30.39,North,0,0.4,0.4,71,0.00,,,0.19,WUHU216HW,2013-03-08 01:30:00,
2013-03-07 20:35:00,34.7,26.3,30.39,North,0,0.2,0.4,71,0.00,,,0.19,WUHU216HW,2013-03-08 01:35:00,
2013-03-07 20:40:00,34.7,26.3,30.39,North,0,0.2,0.4,71,0.00,,,0.19,WUHU216HW,2013-03-08 01:40:00,
2013-03-07 21:00:00,34.2,25.4,30.38,North,0,0.0,0.0,70,0.00,,,0.19,WUHU216HW,2013-03-08 02:00:00,
2013-03-07 21:05:00,34.2,25.4,30.38,North,0,0.0,0.0,70,0.00,,,0.19,WUHU216HW,2013-03-08 02:05:00,
2013-03-07 21:10:00,34.2,25.4,30.38,North,0,0.0,0.0,70,0.00,,,0.19,WUHU216HW,2013-03-08 02:10:00,
2013-03-07 21:30:00,33.8,25.4,30.38,North,0,0.0,0.0,71,0.00,,,0.19,WUHU216HW,2013-03-08 02:30:00,
2013-03-07 21:35:00,33.8,25.4,30.38,North,0,0.0,0.0,71,0.00,,,0.19,WUHU216HW,2013-03-08 02:35:00,
2013-03-07 21:40:00,33.8,25.4,30.38,North,0,0.0,0.0,71,0.00,,,0.19,WUHU216HW,2013-03-08 02:40:00,
2013-03-07 22:00:00,33.1,25.4,30.38,North,0,0.0,0.0,73,0.00,,,0.19,WUHU216HW,2013-03-08 03:00:00,
2013-03-07 22:05:00,32.9,25.2,30.38,North,0,0.0,0.2,73,0.00,,,0.19,WUHU216HW,2013-03-08 03:05:00,
2013-03-07 22:10:00,32.9,25.2,30.38,North,0,0.0,0.2,73,0.00,,,0.19,WUHU216HW,2013-03-08 03:10:00,
2013-03-07 22:30:00,32.6,25.5,30.39,North,0,0.0,0.0,75,0.00,,,0.19,WUHU216HW,2013-03-08 03:30:00,
2013-03-07 22:35:00,32.6,25.5,30.39,North,0,0.0,0.0,75,0.00,,,0.19,WUHU216HW,2013-03-08 03:35:00,
2013-03-07 22:40:00,32.6,25.5,30.39,North,0,0.0,0.0,75,0.00,,,0.19,WUHU216HW,2013-03-08 03:40:00,
2013-03-07 23:00:00,31.7,25.0,30.39,North,0,0.0,0.0,76,0.00,,,0.19,WUHU216HW,2013-03-08 04:00:00,
2013-03-07 23:05:00,31.5,24.9,30.39,North,0,0.0,0.0,76,0.00,,,0.19,WUHU216HW,2013-03-08 04:05:00,
2013-03-07 23:10:00,31.5,24.9,30.39,North,0,0.0,0.0,76,0.00,,,0.19,WUHU216HW,2013-03-08 04:10:00,
2013-03-07 23:30:00,30.8,24.8,30.39,North,0,0.0,0.0,78,0.00,,,0.19,WUHU216HW,2013-03-08 04:30:00,
2013-03-07 23:35:00,30.8,24.8,30.39,North,0,0.0,0.0,78,0.00,,,0.19,WUHU216HW,2013-03-08 04:35:00,
2013-03-07 23:40:00,30.8,24.8,30.39,North,0,0.0,0.0,78,0.00,,,0.19,WUHU216HW,2013-03-08 04:40:00,